createdAt,value
2023-04-29T00:01:07.752Z,10.83
2023-04-29T00:03:35.314Z,11.07
2023-04-29T00:06:02.790Z,12.10
2023-04-29T00:08:30.072Z,10.73
2023-04-29T00:10:56.997Z,11.30
2023-04-29T00:13:23.986Z,12.20
2023-04-29T00:15:50.906Z,11.67
2023-04-29T00:18:17.821Z,11.30
2023-04-29T00:20:44.690Z,11.57
2023-04-29T00:23:11.933Z,12.10
2023-04-29T00:25:39.116Z,11.70
2023-04-29T00:28:06.534Z,11.67
2023-04-29T00:30:36.510Z,11.50
2023-04-29T00:33:03.840Z,12.67
2023-04-29T00:35:30.919Z,12.67
2023-04-29T00:37:58.287Z,12.43
2023-04-29T00:40:25.214Z,13.63
2023-04-29T00:42:52.192Z,12.73
2023-04-29T00:45:19.086Z,11.77
2023-04-29T00:47:46.042Z,12.83
2023-04-29T00:50:13.516Z,12.83
2023-04-29T00:52:40.621Z,13.53
2023-04-29T00:55:09.262Z,10.97
2023-04-29T00:57:36.273Z,10.40
2023-04-29T01:00:04.236Z,11.10
2023-04-29T01:02:31.597Z,11.63
2023-04-29T01:04:58.621Z,11.80
2023-04-29T01:07:43.076Z,12.73
2023-04-29T01:10:27.115Z,12.53
2023-04-29T01:13:14.843Z,12.50
2023-04-29T01:15:54.684Z,11.83
2023-04-29T01:18:28.972Z,12.10
2023-04-29T01:20:57.972Z,13.50
2023-04-29T01:23:29.407Z,12.23
2023-04-29T01:25:58.323Z,12.17
2023-04-29T01:28:54.767Z,12.37
2023-04-29T01:31:32.668Z,12.30
2023-04-29T01:34:08.597Z,13.93
2023-04-29T01:36:44.963Z,12.43
2023-04-29T01:39:21.462Z,13.20
2023-04-29T01:42:08.213Z,14.60
2023-04-29T01:44:36.704Z,13.50
2023-04-29T01:47:03.980Z,14.40
2023-04-29T01:49:37.895Z,14.13
2023-04-29T01:52:05.591Z,15.47
2023-04-29T01:54:36.447Z,14.20
2023-04-29T01:57:03.857Z,14.00
2023-04-29T01:59:59.909Z,13.87
2023-04-29T02:02:45.833Z,15.13
2023-04-29T02:05:24.913Z,13.70
2023-04-29T02:07:56.185Z,14.57
2023-04-29T02:10:23.324Z,14.20
2023-04-29T02:12:56.369Z,13.47
2023-04-29T02:15:27.847Z,13.80
2023-04-29T02:17:55.672Z,12.33
2023-04-29T02:20:22.655Z,14.00
2023-04-29T02:22:49.733Z,13.87
2023-04-29T02:25:16.788Z,14.90
2023-04-29T02:27:43.915Z,14.50
2023-04-29T02:30:11.408Z,14.80
2023-04-29T02:32:40.598Z,13.50
2023-04-29T02:35:08.525Z,13.03
2023-04-29T02:37:35.752Z,12.77
2023-04-29T02:40:03.550Z,14.10
2023-04-29T02:42:31.057Z,14.03
2023-04-29T02:44:58.493Z,14.37
2023-04-29T02:47:25.412Z,13.97
2023-04-29T02:49:52.674Z,13.43
2023-04-29T02:52:19.854Z,13.00
2023-04-29T02:54:47.853Z,13.50
2023-04-29T02:57:14.938Z,13.60
2023-04-29T02:59:42.318Z,13.43
2023-04-29T03:02:09.294Z,13.87
2023-04-29T03:04:36.265Z,15.40
2023-04-29T03:07:04.555Z,13.33
2023-04-29T03:09:31.967Z,14.53
2023-04-29T03:11:59.484Z,14.00
2023-04-29T03:14:26.484Z,13.13
2023-04-29T03:16:53.844Z,15.90
2023-04-29T03:19:20.805Z,15.27
2023-04-29T03:24:17.354Z,14.47
2023-04-29T03:26:44.627Z,13.80
2023-04-29T03:29:11.905Z,14.90
2023-04-29T03:31:38.877Z,14.37
2023-04-29T03:34:05.930Z,15.23
2023-04-29T03:36:36.839Z,14.63
2023-04-29T03:39:07.126Z,16.40
2023-04-29T03:41:34.191Z,14.73
2023-04-29T03:44:01.342Z,14.90
2023-04-29T03:46:29.752Z,16.27
2023-04-29T03:48:57.693Z,15.40
2023-04-29T03:51:25.917Z,16.27
2023-04-29T03:53:59.174Z,18.50
2023-04-29T03:56:26.861Z,18.50
2023-04-29T03:58:54.108Z,16.20
2023-04-29T04:01:23.269Z,17.17
2023-04-29T04:03:50.278Z,16.80
2023-04-29T04:06:17.323Z,16.97
2023-04-29T04:08:44.677Z,16.83
2023-04-29T04:11:21.309Z,16.27
2023-04-29T04:13:53.632Z,15.80
2023-04-29T04:16:20.721Z,15.30
2023-04-29T04:18:47.711Z,15.13
2023-04-29T04:21:14.880Z,15.43
2023-04-29T04:23:46.749Z,16.07
2023-04-29T04:26:20.583Z,14.50
2023-04-29T04:28:56.898Z,14.40
2023-04-29T04:31:32.894Z,16.33
2023-04-29T04:34:00.177Z,15.57
2023-04-29T04:36:29.957Z,18.53
2023-04-29T04:38:57.285Z,18.00
2023-04-29T04:41:24.262Z,19.40
2023-04-29T04:43:52.881Z,18.33
2023-04-29T04:46:40.236Z,18.10
2023-04-29T04:49:13.605Z,18.47
2023-04-29T04:51:48.481Z,18.17
2023-04-29T04:54:15.778Z,18.73
2023-04-29T04:56:43.157Z,17.53
2023-04-29T04:59:10.404Z,19.23
2023-04-29T05:01:40.365Z,20.23
2023-04-29T05:04:07.411Z,21.20
2023-04-29T05:06:34.391Z,21.07
2023-04-29T05:09:01.521Z,20.87
2023-04-29T05:11:28.378Z,20.80
2023-04-29T05:14:13.661Z,19.73
2023-04-29T05:16:40.673Z,20.00
2023-04-29T05:19:09.225Z,20.60
2023-04-29T05:21:39.614Z,21.00
2023-04-29T05:24:08.993Z,21.43
2023-04-29T05:26:36.160Z,21.93
2023-04-29T05:29:03.157Z,22.63
2023-04-29T05:31:37.441Z,23.57
2023-04-29T05:34:07.746Z,22.83
2023-04-29T05:36:34.678Z,23.73
2023-04-29T05:39:02.211Z,23.73
2023-04-29T05:41:30.266Z,23.83
2023-04-29T05:43:57.210Z,22.80
2023-04-29T05:46:24.303Z,24.47
2023-04-29T05:48:51.645Z,24.53
2023-04-29T05:51:18.785Z,24.33
2023-04-29T05:53:45.832Z,22.97
2023-04-29T05:56:12.843Z,22.20
2023-04-29T05:58:41.117Z,21.83
2023-04-29T06:01:08.103Z,21.37
2023-04-29T06:03:35.931Z,20.67
2023-04-29T06:06:21.391Z,21.03
2023-04-29T06:09:13.476Z,20.27
2023-04-29T06:11:45.610Z,21.07
2023-04-29T06:14:12.658Z,22.97
2023-04-29T06:16:42.697Z,21.67
2023-04-29T06:19:09.738Z,22.37
2023-04-29T06:21:36.703Z,21.23
2023-04-29T06:24:04.319Z,20.93
2023-04-29T06:26:31.360Z,23.87
2023-04-29T06:28:58.639Z,23.07
2023-04-29T06:31:25.796Z,23.10
2023-04-29T06:33:55.673Z,22.03
2023-04-29T06:36:23.803Z,23.77
2023-04-29T06:39:18.543Z,23.10
2023-04-29T06:42:14.968Z,26.23
2023-04-29T06:45:00.654Z,23.70
2023-04-29T06:47:40.773Z,23.73
2023-04-29T06:50:12.067Z,22.90
2023-04-29T06:52:38.989Z,22.60
2023-04-29T06:55:07.017Z,24.10
2023-04-29T06:57:34.157Z,24.07
2023-04-29T07:00:01.254Z,23.53
2023-04-29T07:02:28.362Z,22.30
2023-04-29T07:04:55.613Z,21.70
2023-04-29T07:07:23.043Z,20.50
2023-04-29T07:09:52.916Z,21.50
2023-04-29T07:12:20.842Z,21.80
2023-04-29T07:14:47.939Z,21.00
2023-04-29T07:17:15.004Z,22.17
2023-04-29T07:19:42.605Z,22.30
2023-04-29T07:22:10.991Z,22.40
2023-04-29T07:24:37.893Z,23.27
2023-04-29T07:27:04.820Z,22.00
2023-04-29T07:29:32.630Z,23.57
2023-04-29T07:31:59.899Z,25.33
2023-04-29T07:34:27.417Z,21.77
2023-04-29T07:36:54.549Z,23.27
2023-04-29T07:39:21.463Z,23.37
2023-04-29T07:41:55.156Z,22.40
2023-04-29T07:44:23.209Z,23.00
2023-04-29T07:46:50.108Z,20.83
2023-04-29T07:49:17.116Z,22.20
2023-04-29T07:51:44.387Z,22.40
2023-04-29T07:54:11.432Z,23.73
2023-04-29T07:56:38.270Z,23.63
2023-04-29T07:59:07.650Z,23.40
2023-04-29T08:01:34.517Z,22.93
2023-04-29T08:04:02.293Z,23.60
2023-04-29T08:06:30.894Z,22.37
2023-04-29T08:08:57.990Z,23.60
2023-04-29T08:11:26.152Z,25.03
2023-04-29T08:13:54.042Z,24.13
2023-04-29T08:16:21.858Z,25.43
2023-04-29T08:18:48.925Z,24.07
2023-04-29T08:21:16.012Z,26.93
2023-04-29T08:23:42.940Z,25.27
2023-04-29T08:26:11.223Z,27.83
2023-04-29T08:28:38.442Z,27.30
2023-04-29T08:31:10.567Z,26.93
2023-04-29T08:33:37.621Z,27.23
2023-04-29T08:36:04.847Z,27.50
2023-04-29T08:38:32.055Z,27.57
2023-04-29T08:40:58.933Z,29.07
2023-04-29T08:43:26.954Z,30.13
2023-04-29T08:45:54.251Z,29.10
2023-04-29T08:48:22.039Z,27.50
2023-04-29T08:50:49.055Z,28.67
2023-04-29T08:53:16.256Z,30.57
2023-04-29T08:55:45.854Z,29.20
2023-04-29T08:58:14.829Z,29.70
2023-04-29T09:00:43.759Z,29.43
2023-04-29T09:03:30.026Z,29.60
2023-04-29T09:06:00.712Z,29.57
2023-04-29T09:08:27.997Z,29.77
2023-04-29T09:10:56.268Z,30.23
2023-04-29T09:13:27.368Z,29.30
2023-04-29T09:15:55.159Z,30.17
2023-04-29T09:18:45.570Z,31.03
2023-04-29T09:21:24.363Z,30.53
2023-04-29T09:23:56.504Z,30.63
2023-04-29T09:26:24.307Z,30.47
2023-04-29T09:29:11.935Z,30.97
2023-04-29T09:31:42.233Z,34.60
2023-04-29T09:34:09.926Z,35.40
2023-04-29T09:36:51.427Z,37.27
2023-04-29T09:39:23.780Z,37.27
2023-04-29T09:41:51.507Z,38.50
2023-04-29T09:44:19.875Z,36.33
2023-04-29T09:47:04.993Z,37.77
2023-04-29T09:49:35.424Z,36.93
2023-04-29T09:52:04.212Z,33.80
2023-04-29T09:54:34.052Z,33.43
2023-04-29T09:57:05.899Z,33.30
2023-04-29T09:59:38.467Z,34.67
2023-04-29T10:02:15.307Z,34.60
2023-04-29T10:04:44.552Z,34.17
2023-04-29T10:07:17.242Z,35.20
2023-04-29T10:09:46.320Z,34.77
2023-04-29T10:12:17.565Z,34.33
2023-04-29T10:14:55.611Z,36.23
2023-04-29T10:17:37.116Z,37.53
2023-04-29T10:20:09.042Z,40.10
2023-04-29T10:22:47.926Z,39.77
2023-04-29T10:25:20.616Z,40.87
2023-04-29T10:27:49.051Z,37.70
2023-04-29T10:30:17.809Z,38.03
2023-04-29T10:35:22.987Z,35.67
2023-04-29T10:37:50.384Z,35.50
2023-04-29T10:40:21.077Z,34.60
2023-04-29T10:42:50.475Z,35.50
2023-04-29T10:45:23.911Z,34.43
2023-04-29T10:48:24.158Z,31.67
2023-04-29T10:50:51.030Z,34.73
2023-04-29T10:53:20.064Z,34.13
2023-04-29T10:55:56.624Z,34.20
2023-04-29T10:58:35.803Z,36.43
2023-04-29T11:01:03.534Z,33.30
2023-04-29T11:03:58.850Z,31.77
2023-04-29T11:06:37.814Z,29.43
2023-04-29T11:09:16.063Z,32.07
2023-04-29T11:11:44.143Z,32.37
2023-04-29T11:14:14.608Z,31.80
2023-04-29T11:16:49.768Z,32.70
2023-04-29T11:19:18.022Z,31.27
2023-04-29T11:21:47.003Z,31.40
2023-04-29T11:24:16.225Z,30.73
2023-04-29T11:26:44.476Z,30.27
2023-04-29T11:29:11.561Z,31.87
2023-04-29T11:31:39.664Z,30.60
2023-04-29T11:34:07.935Z,31.10
2023-04-29T11:36:36.076Z,30.07
2023-04-29T11:39:04.221Z,29.37
2023-04-29T11:41:31.821Z,31.10
2023-04-29T11:44:00.023Z,27.60
2023-04-29T11:46:30.191Z,29.20
2023-04-29T11:48:58.497Z,29.77
2023-04-29T11:51:25.414Z,29.93
2023-04-29T11:53:52.667Z,28.60
2023-04-29T11:56:25.438Z,29.73
2023-04-29T11:58:57.350Z,28.10
2023-04-29T12:01:26.580Z,28.20
2023-04-29T12:03:59.860Z,27.33
2023-04-29T12:06:30.684Z,28.10
2023-04-29T12:09:00.391Z,27.77
2023-04-29T12:11:28.901Z,24.50
2023-04-29T12:13:56.969Z,23.13
2023-04-29T12:16:24.397Z,23.47
2023-04-29T12:18:53.043Z,23.70
2023-04-29T12:21:20.028Z,24.93
2023-04-29T12:23:47.699Z,24.67
2023-04-29T12:26:15.042Z,24.50
2023-04-29T12:28:42.205Z,22.17
2023-04-29T12:31:11.593Z,21.70
2023-04-29T12:33:38.580Z,14.17
2023-04-29T12:36:17.888Z,14.80
2023-04-29T12:38:45.604Z,16.53
2023-04-29T12:41:14.483Z,16.07
2023-04-29T12:43:42.377Z,16.37
2023-04-29T12:46:13.050Z,10.30
2023-04-29T12:48:41.812Z,13.93
2023-04-29T12:51:10.525Z,9.90
2023-04-29T12:53:37.783Z,10.40
2023-04-29T12:56:06.294Z,13.20
2023-04-29T12:58:34.948Z,14.43
2023-04-29T13:01:02.043Z,14.13
2023-04-29T13:03:29.348Z,13.20
2023-04-29T13:05:57.360Z,13.03
2023-04-29T13:08:24.456Z,13.80
2023-04-29T13:10:51.621Z,15.13
2023-04-29T13:13:18.640Z,13.73
2023-04-29T13:15:45.513Z,13.53
2023-04-29T13:18:12.472Z,12.73
2023-04-29T13:20:42.247Z,11.90
2023-04-29T13:23:10.510Z,11.93
2023-04-29T13:25:37.454Z,10.97
2023-04-29T13:28:07.876Z,10.07
2023-04-29T13:30:35.152Z,10.47
2023-04-29T13:33:11.805Z,10.90
2023-04-29T13:35:41.675Z,10.43
2023-04-29T13:38:09.267Z,10.30
2023-04-29T13:40:41.793Z,8.17
2023-04-29T13:43:15.368Z,10.17
2023-04-29T13:45:47.875Z,10.37
2023-04-29T13:48:28.499Z,8.93
2023-04-29T13:54:17.362Z,8.33
2023-04-29T14:02:08.022Z,7.63
2023-04-29T14:04:07.074Z,7.47
2023-04-29T14:06:34.816Z,9.40
2023-04-29T14:09:03.656Z,8.37
2023-04-29T14:11:31.131Z,8.40
2023-04-29T14:13:58.070Z,8.03
2023-04-29T14:16:25.204Z,9.23
2023-04-29T14:18:52.332Z,7.70
2023-04-29T14:21:22.381Z,8.00
2023-04-29T14:23:50.332Z,8.07
2023-04-29T14:26:27.946Z,7.07
2023-04-29T14:28:59.819Z,7.17
2023-04-29T14:31:28.885Z,6.80
2023-04-29T14:33:57.179Z,6.40
2023-04-29T14:36:24.851Z,5.50
2023-04-29T14:38:51.806Z,6.67
2023-04-29T14:41:19.008Z,6.73
2023-04-29T14:43:46.615Z,7.27
2023-04-29T14:46:14.296Z,7.80
2023-04-29T14:48:41.223Z,7.23
2023-04-29T14:51:08.167Z,7.43
2023-04-29T14:53:35.185Z,7.60
2023-04-29T14:56:02.366Z,7.13
2023-04-29T14:58:29.341Z,7.77
2023-04-29T15:00:56.359Z,8.93
2023-04-29T15:03:23.710Z,8.53
2023-04-29T15:05:51.686Z,8.00
2023-04-29T15:08:19.812Z,8.47
2023-04-29T15:10:47.774Z,7.73
2023-04-29T15:13:15.044Z,7.43
2023-04-29T15:15:42.416Z,8.20
2023-04-29T15:18:09.473Z,9.00
2023-04-29T15:20:37.598Z,8.40
2023-04-29T15:23:05.547Z,9.07
2023-04-29T15:25:36.339Z,9.10
2023-04-29T15:28:04.873Z,7.27
2023-04-29T15:30:32.696Z,6.93
2023-04-29T15:32:59.907Z,7.03
2023-04-29T15:35:27.646Z,7.23
2023-04-29T15:37:54.813Z,6.93
2023-04-29T15:40:22.060Z,7.27
2023-04-29T15:42:49.001Z,6.97
2023-04-29T15:45:16.985Z,6.43
2023-04-29T15:47:44.117Z,7.17
2023-04-29T15:50:11.568Z,5.33
2023-04-29T15:52:38.839Z,5.77
2023-04-29T15:55:06.931Z,5.60
2023-04-29T15:57:34.852Z,6.20
2023-04-29T16:00:02.167Z,6.30
2023-04-29T16:02:29.174Z,6.87
2023-04-29T16:04:56.119Z,6.73
2023-04-29T16:07:23.106Z,6.33
2023-04-29T16:09:50.034Z,6.00
2023-04-29T16:12:16.984Z,5.80
2023-04-29T16:14:44.091Z,6.10
2023-04-29T16:17:11.062Z,6.77
2023-04-29T16:19:38.129Z,6.57
2023-04-29T16:22:05.137Z,6.53
2023-04-29T16:24:32.296Z,8.30
2023-04-29T16:26:59.449Z,8.93
2023-04-29T16:29:26.810Z,7.90
2023-04-29T16:31:53.878Z,8.63
2023-04-29T16:34:20.856Z,8.17
2023-04-29T16:36:48.084Z,8.20
2023-04-29T16:39:14.999Z,8.17
2023-04-29T16:41:42.074Z,7.70
2023-04-29T16:44:09.347Z,8.13
2023-04-29T16:46:36.459Z,7.70
2023-04-29T16:49:03.617Z,7.63
2023-04-29T16:51:33.439Z,8.83
2023-04-29T16:54:00.486Z,7.83
2023-04-29T16:56:27.626Z,8.43
2023-04-29T16:58:54.557Z,7.57
2023-04-29T17:01:21.655Z,8.03
2023-04-29T17:03:49.039Z,8.40
2023-04-29T17:06:16.398Z,7.30
2023-04-29T17:08:44.531Z,7.33
2023-04-29T17:11:11.771Z,7.17
2023-04-29T17:13:38.728Z,8.67
2023-04-29T17:16:06.741Z,7.53
2023-04-29T17:18:34.243Z,6.97
2023-04-29T17:21:01.585Z,6.60
2023-04-29T17:23:30.553Z,6.57
2023-04-29T17:25:57.696Z,7.07
2023-04-29T17:28:25.011Z,7.37
2023-04-29T17:30:55.646Z,7.47
2023-04-29T17:33:22.624Z,7.27
2023-04-29T17:35:49.644Z,6.93
2023-04-29T17:38:16.594Z,7.80
2023-04-29T17:40:43.708Z,8.17
2023-04-29T17:43:10.944Z,7.93
2023-04-29T17:45:40.519Z,7.83
2023-04-29T17:48:07.794Z,7.87
2023-04-29T17:50:34.898Z,7.13
2023-04-29T17:53:01.835Z,9.17
2023-04-29T17:55:28.744Z,8.80
2023-04-29T17:57:56.695Z,9.70
2023-04-29T18:00:23.987Z,9.57
2023-04-29T18:02:51.084Z,9.90
2023-04-29T18:05:18.108Z,11.27
2023-04-29T18:07:45.001Z,13.80
2023-04-29T18:10:11.901Z,12.10
2023-04-29T18:12:38.844Z,11.40
2023-04-29T18:15:07.785Z,11.43
2023-04-29T18:17:34.709Z,10.33
2023-04-29T18:20:01.729Z,10.83
2023-04-29T18:22:28.602Z,11.00
2023-04-29T18:24:56.645Z,9.93
2023-04-29T18:27:24.811Z,10.40
2023-04-29T18:29:51.793Z,11.20
2023-04-29T18:32:18.941Z,10.83
2023-04-29T18:34:45.907Z,10.53
2023-04-29T18:37:12.807Z,10.77
2023-04-29T18:39:39.773Z,10.20
2023-04-29T18:42:07.000Z,10.97
2023-04-29T18:44:34.248Z,9.77
2023-04-29T18:47:01.139Z,10.73
2023-04-29T18:49:28.111Z,9.80
2023-04-29T18:51:54.955Z,9.67
2023-04-29T18:54:22.023Z,10.20
2023-04-29T18:56:50.252Z,9.87
2023-04-29T18:59:19.808Z,9.50
2023-04-29T19:01:48.250Z,9.43
2023-04-29T19:04:16.309Z,10.13
2023-04-29T19:06:43.556Z,9.10
2023-04-29T19:09:13.788Z,10.20
2023-04-29T19:11:40.831Z,10.13
2023-04-29T19:14:07.804Z,10.23
2023-04-29T19:16:36.876Z,9.73
2023-04-29T19:19:04.577Z,10.13
2023-04-29T19:21:34.683Z,10.23
2023-04-29T19:24:01.775Z,9.57
2023-04-29T19:26:29.918Z,10.73
2023-04-29T19:28:58.140Z,10.63
2023-04-29T19:31:25.049Z,9.83
2023-04-29T19:33:52.497Z,10.20
2023-04-29T19:36:19.561Z,9.23
2023-04-29T19:38:46.982Z,10.13
2023-04-29T19:41:14.020Z,9.87
2023-04-29T19:43:41.056Z,10.03
2023-04-29T19:46:08.072Z,9.90
2023-04-29T19:48:35.101Z,10.63
2023-04-29T19:51:01.933Z,10.03
2023-04-29T19:53:29.993Z,11.70
2023-04-29T19:55:58.435Z,11.43
2023-04-29T19:58:25.461Z,12.33
2023-04-29T20:00:52.846Z,11.90
2023-04-29T20:03:20.042Z,11.83
2023-04-29T20:05:47.649Z,12.37
2023-04-29T20:08:14.666Z,13.40
2023-04-29T20:10:41.655Z,12.63
2023-04-29T20:13:08.612Z,12.47
2023-04-29T20:15:35.536Z,12.37
2023-04-29T20:18:02.613Z,12.37
2023-04-29T20:20:29.613Z,12.73
2023-04-29T20:23:00.234Z,12.73
2023-04-29T20:25:28.532Z,12.63
2023-04-29T20:27:56.704Z,13.70
2023-04-29T20:30:23.993Z,14.97
2023-04-29T20:32:50.981Z,14.03
2023-04-29T20:35:18.580Z,13.93
2023-04-29T20:37:45.984Z,13.60
2023-04-29T20:40:13.157Z,14.43
2023-04-29T20:42:40.315Z,15.00
2023-04-29T20:45:07.982Z,16.03
2023-04-29T20:47:37.878Z,15.83
2023-04-29T20:50:05.293Z,15.33
2023-04-29T20:52:32.423Z,14.67
2023-04-29T20:55:02.467Z,15.33
2023-04-29T20:57:29.351Z,15.77
2023-04-29T20:59:56.740Z,14.17
2023-04-29T21:02:23.870Z,16.47
2023-04-29T21:04:50.979Z,15.73
2023-04-29T21:07:17.884Z,15.63
2023-04-29T21:09:45.066Z,15.83
2023-04-29T21:12:12.230Z,16.67
2023-04-29T21:14:40.833Z,16.63
2023-04-29T21:17:09.047Z,16.53
2023-04-29T21:19:37.711Z,17.73
2023-04-29T21:22:05.003Z,17.63
2023-04-29T21:24:32.256Z,17.73
2023-04-29T21:26:59.140Z,16.83
2023-04-29T21:29:26.634Z,16.47
2023-04-29T21:31:53.545Z,18.20
2023-04-29T21:34:20.515Z,17.70
2023-04-29T21:36:47.359Z,17.37
2023-04-29T21:39:14.501Z,17.97
2023-04-29T21:41:43.045Z,18.57
2023-04-29T21:44:10.039Z,18.47
2023-04-29T21:46:37.378Z,18.93
2023-04-29T21:49:04.461Z,19.17
2023-04-29T21:51:32.017Z,20.43
2023-04-29T21:53:59.198Z,20.73
2023-04-29T21:56:26.158Z,20.47
2023-04-29T21:58:53.433Z,20.27
2023-04-29T22:01:39.074Z,21.17
2023-04-29T22:04:06.496Z,21.00
2023-04-29T22:06:34.572Z,20.07
2023-04-29T22:09:02.108Z,20.07
2023-04-29T22:11:29.399Z,21.43
2023-04-29T22:13:56.522Z,21.63
2023-04-29T22:16:23.729Z,21.67
2023-04-29T22:18:51.324Z,21.40
2023-04-29T22:21:18.979Z,20.73
2023-04-29T22:23:47.141Z,22.27
2023-04-29T22:26:14.057Z,20.20
2023-04-29T22:28:41.127Z,20.93
2023-04-29T22:31:08.116Z,21.30
2023-04-29T22:33:35.859Z,19.20
2023-04-29T22:36:04.101Z,20.47
2023-04-29T22:38:31.278Z,21.30
2023-04-29T22:40:58.227Z,20.27
2023-04-29T22:43:25.511Z,21.40
2023-04-29T22:45:53.493Z,19.63
2023-04-29T22:48:20.735Z,21.03
2023-04-29T22:50:59.487Z,20.60
2023-04-29T22:53:26.873Z,20.00
2023-04-29T22:55:56.301Z,20.77
2023-04-29T22:58:25.431Z,19.57
2023-04-29T23:00:54.921Z,20.53
2023-04-29T23:03:21.926Z,19.53
2023-04-29T23:05:49.263Z,19.83
2023-04-29T23:08:16.472Z,19.67
2023-04-29T23:10:49.133Z,18.50
2023-04-29T23:13:16.798Z,20.10
2023-04-29T23:15:43.982Z,19.97
2023-04-29T23:18:11.119Z,19.20
2023-04-29T23:20:38.274Z,18.80
2023-04-29T23:23:05.355Z,20.20
2023-04-29T23:25:32.324Z,20.23
2023-04-29T23:27:59.195Z,19.40
2023-04-29T23:30:26.222Z,17.53
2023-04-29T23:32:53.236Z,17.43
2023-04-29T23:35:20.222Z,18.10
2023-04-29T23:37:47.110Z,18.27
2023-04-29T23:40:15.867Z,19.23
2023-04-29T23:42:43.034Z,21.00
2023-04-29T23:45:10.223Z,18.23
2023-04-29T23:47:37.199Z,20.07
2023-04-29T23:50:04.573Z,18.37
2023-04-29T23:52:31.625Z,18.43
2023-04-29T23:54:58.625Z,19.70
2023-04-29T23:57:25.750Z,19.03
2023-04-29T23:59:53.235Z,20.40
